Klawock Airport Klawock US
ICAO: PAKW
IATA:
Category: Medium
Scheduled Services:

Elevation: 80 ft
TransAlt. 18000 ft.

Airport Communications:
ASOS:135.45
ANCHORAGE CNTR:118.5
CTAF:120.9
KETCHIKAN RDO:122.25

PAKW Zoom In..

If you have problems with the map follow the link
https://www.worldairports.se/pages/airport.php?
ICAO=PAKW

Runways:

(A) RW 02 length 5000 ft width 100 ft
---- / hdg 19

(B) RW 20 length 5000 ft width 100 ft
---- / hdg 199

Location; PAKW
Day. 20 / Time. 20.53 Zulu
* Altimeter: 30.18
* Temperature: 6/° c. 42.8°f.
* Wind from: VRB° Speed 03 kn.
Dewpoint: //° c.
Visibility: 10 Statute Miles.
Clouds: Overcast 2200 ft.

PAKW 202053Z AUTO VRB03KT 10SM OVC022 05/02 A3018 RMK AO2 SLP221 6//// T00500017 TSNO $


Wind From VRB°
Speed 03 kn.

 
 
jpsmedia.com for Web Design worldairports.se 2019   terms of use